Time;durP1;ratioP1;P1;durP2;ratioP2;P2;SDS_P1;SDS_P2;PMS_P1;PMS_P2;Temp;Humidity;BMP_temperature;BMP_pressure;BME280_temperature;BME280_humidity;BME280_pressure;Samples;Min_cycle;Max_cycle;Signal;HPM_P1;HPM_P2
2023/04/19 00:01:38;;;;;;;9.55;6.60;;;6.60;1.00;;;;;;5073743;28;20378;-24
2023/04/19 00:04:04;;;;;;;13.27;7.15;;;6.60;1.00;;;;;;5039324;28;20158;-25
2023/04/19 00:06:30;;;;;;;9.48;6.30;;;6.50;1.00;;;;;;5075795;28;20144;-24
2023/04/19 00:08:56;;;;;;;10.40;6.85;;;6.60;1.00;;;;;;5077398;28;20524;-24
2023/04/19 00:11:23;;;;;;;11.93;7.43;;;6.60;99.90;;;;;;5059408;28;20131;-24
2023/04/19 00:13:48;;;;;;;9.15;6.68;;;6.60;99.90;;;;;;5059918;28;20052;-24
2023/04/19 00:16:15;;;;;;;9.13;7.10;;;6.60;99.90;;;;;;5077250;28;20136;-24
2023/04/19 00:18:41;;;;;;;10.20;7.28;;;6.70;99.90;;;;;;5059397;28;20055;-24
2023/04/19 00:21:07;;;;;;;11.02;7.32;;;6.70;99.90;;;;;;5076854;28;20491;-24
2023/04/19 00:23:34;;;;;;;9.38;7.00;;;6.70;99.90;;;;;;5077167;28;20074;-24
2023/04/19 00:26:03;;;;;;;12.52;6.72;;;6.60;99.90;;;;;;5077611;28;20102;-24
2023/04/19 00:28:29;;;;;;;10.77;6.47;;;6.70;99.90;;;;;;5042345;28;20057;-24
2023/04/19 00:30:56;;;;;;;10.38;6.53;;;6.70;99.90;;;;;;5076648;28;20494;-25
2023/04/19 00:33:21;;;;;;;8.98;6.45;;;6.80;99.90;;;;;;5076931;28;20048;-24
2023/04/19 00:35:47;;;;;;;10.95;6.57;;;6.80;99.90;;;;;;5076879;28;20471;-24
2023/04/19 00:38:13;;;;;;;11.80;7.30;;;6.80;99.90;;;;;;5077377;28;20513;-25
2023/04/19 00:40:39;;;;;;;10.88;7.03;;;6.80;99.90;;;;;;5076832;28;20524;-24
2023/04/19 00:43:04;;;;;;;11.68;6.95;;;6.70;91.90;;;;;;5059098;28;20584;-24
2023/04/19 00:45:32;;;;;;;10.88;7.32;;;6.60;58.20;;;;;;5076363;28;20157;-24
2023/04/19 00:47:58;;;;;;;10.27;6.68;;;6.60;73.40;;;;;;5042496;28;20126;-24
2023/04/19 00:50:24;;;;;;;8.27;6.72;;;6.50;59.00;;;;;;5077146;28;20049;-24
2023/04/19 00:52:52;;;;;;;10.43;6.57;;;6.50;33.20;;;;;;5076513;28;20049;-24
2023/04/19 00:55:18;;;;;;;11.10;6.82;;;6.60;30.30;;;;;;5076454;28;20044;-24
2023/04/19 00:57:44;;;;;;;10.75;7.43;;;6.60;24.20;;;;;;5076461;28;20040;-24
2023/04/19 01:00:10;;;;;;;10.48;7.10;;;6.50;16.40;;;;;;5042982;28;20053;-24
2023/04/19 01:02:36;;;;;;;12.85;7.72;;;6.40;38.70;;;;;;5058578;28;20056;-24
2023/04/19 01:05:02;;;;;;;11.35;7.45;;;6.40;90.60;;;;;;5059128;28;20048;-24
2023/04/19 01:07:28;;;;;;;11.90;7.97;;;6.40;99.90;;;;;;5076270;28;20048;-24
2023/04/19 01:09:53;;;;;;;13.25;8.32;;;6.50;99.90;;;;;;5058642;28;20052;-24
2023/04/19 01:12:19;;;;;;;12.13;8.32;;;6.50;99.90;;;;;;5058378;28;20131;-24
2023/04/19 01:14:45;;;;;;;12.95;9.25;;;6.60;99.90;;;;;;5076701;28;20097;-24
2023/04/19 01:17:12;;;;;;;12.88;8.98;;;6.50;99.90;;;;;;5058102;28;20052;-24
2023/04/19 01:19:38;;;;;;;13.80;9.48;;;6.50;1.00;;;;;;5058231;28;20088;-24
2023/04/19 01:22:05;;;;;;;16.73;9.38;;;6.50;1.00;;;;;;5041606;28;20083;-24
2023/04/19 01:24:31;;;;;;;13.00;9.10;;;6.50;1.00;;;;;;5076227;28;20044;-24
2023/04/19 01:26:57;;;;;;;15.18;9.05;;;6.60;1.00;;;;;;5075847;28;20482;-24
2023/04/19 01:29:23;;;;;;;15.43;10.40;;;6.50;1.00;;;;;;5076385;28;20054;-24
2023/04/19 01:31:52;;;;;;;13.77;9.45;;;6.60;44.30;;;;;;5076663;28;20044;-24
2023/04/19 01:34:18;;;;;;;14.93;10.55;;;6.60;1.00;;;;;;5075795;28;20564;-24
2023/04/19 01:36:44;;;;;;;15.13;10.27;;;6.50;1.00;;;;;;5075995;28;20497;-24
2023/04/19 01:39:10;;;;;;;16.02;10.73;;;6.50;36.90;;;;;;5076308;28;20045;-23
2023/04/19 01:41:36;;;;;;;16.42;10.65;;;6.50;1.00;;;;;;5075694;28;20127;-24
2023/04/19 01:44:02;;;;;;;15.07;10.75;;;6.40;1.00;;;;;;5042072;28;20132;-24
2023/04/19 01:46:28;;;;;;;14.80;10.65;;;6.40;1.00;;;;;;5041201;28;20490;-24
2023/04/19 01:48:54;;;;;;;21.50;10.90;;;6.40;1.00;;;;;;5075517;28;20070;-24
2023/04/19 01:51:20;;;;;;;16.55;11.27;;;6.30;1.00;;;;;;5075492;28;20045;-24
2023/04/19 01:53:51;;;;;;;14.73;9.32;;;6.30;1.00;;;;;;5058396;28;20080;-24
2023/04/19 01:56:17;;;;;;;18.17;10.25;;;6.30;1.00;;;;;;5076029;28;20055;-24
2023/04/19 01:58:43;;;;;;;16.70;10.18;;;6.30;1.00;;;;;;5057501;28;20032;-25
2023/04/19 02:01:11;;;;;;;14.27;10.17;;;6.30;1.00;;;;;;5041095;28;20056;-24
2023/04/19 02:03:37;;;;;;;15.10;11.07;;;6.30;1.00;;;;;;5058593;28;20138;-24
2023/04/19 02:06:03;;;;;;;16.20;10.85;;;6.30;1.00;;;;;;5075175;28;20045;-24
2023/04/19 02:08:29;;;;;;;16.85;10.63;;;6.20;1.00;;;;;;5057267;28;20431;-24
2023/04/19 02:10:55;;;;;;;17.52;10.38;;;6.20;1.00;;;;;;5057173;28;20049;-24
2023/04/19 02:13:21;;;;;;;17.17;10.52;;;6.20;1.00;;;;;;5057216;28;20051;-24
2023/04/19 02:15:46;;;;;;;18.13;10.77;;;6.20;1.00;;;;;;5041490;28;20094;-24
2023/04/19 02:18:12;;;;;;;20.65;10.35;;;6.00;1.00;;;;;;5074947;28;20098;-24
2023/04/19 02:20:38;;;;;;;16.33;10.90;;;6.00;1.00;;;;;;5075428;28;20132;-24
2023/04/19 02:23:04;;;;;;;15.90;9.73;;;6.00;1.00;;;;;;5074809;28;20071;-24
2023/04/19 02:25:30;;;;;;;15.55;10.40;;;5.90;99.90;;;;;;5074839;28;20084;-24
2023/04/19 02:27:56;;;;;;;14.73;10.27;;;5.90;1.00;;;;;;5075000;28;20059;-24
2023/04/19 02:30:21;;;;;;;17.88;10.73;;;5.80;99.90;;;;;;5074528;28;20051;-24
2023/04/19 02:32:48;;;;;;;14.93;10.18;;;5.80;99.90;;;;;;5074641;28;20131;-24
2023/04/19 02:35:14;;;;;;;19.42;9.93;;;5.80;99.90;;;;;;5023810;28;20056;-24
2023/04/19 02:37:41;;;;;;;14.00;9.77;;;5.80;99.90;;;;;;5040649;28;20052;-24
2023/04/19 02:40:07;;;;;;;15.90;10.02;;;5.70;99.90;;;;;;5056596;28;20091;-24
2023/04/19 02:42:33;;;;;;;16.00;9.95;;;5.60;99.90;;;;;;5056852;28;20387;-24
2023/04/19 02:44:59;;;;;;;14.23;9.20;;;5.60;99.90;;;;;;5075217;28;20053;-24
2023/04/19 02:47:24;;;;;;;13.70;9.65;;;5.50;99.90;;;;;;5056514;28;20051;-24
2023/04/19 02:49:50;;;;;;;13.88;9.55;;;5.40;99.90;;;;;;5074269;28;20059;-24
2023/04/19 02:52:16;;;;;;;12.45;9.38;;;5.40;99.90;;;;;;5075116;28;20044;-24
2023/04/19 02:54:42;;;;;;;14.50;8.80;;;5.30;99.90;;;;;;5074226;28;20047;-24
2023/04/19 02:57:07;;;;;;;12.93;8.80;;;5.30;99.90;;;;;;5074794;28;20448;-24
2023/04/19 02:59:33;;;;;;;13.48;8.90;;;5.20;99.90;;;;;;5039978;28;20045;-24
2023/04/19 03:01:59;;;;;;;15.63;9.20;;;5.30;99.90;;;;;;5074624;28;20048;-24
2023/04/19 03:04:24;;;;;;;14.50;8.45;;;5.20;99.90;;;;;;5074947;28;20060;-24
2023/04/19 03:06:51;;;;;;;13.05;9.27;;;5.10;99.90;;;;;;5074497;28;20040;-26
2023/04/19 03:09:17;;;;;;;14.37;9.43;;;5.10;99.90;;;;;;5039771;28;20056;-26
2023/04/19 03:11:42;;;;;;;14.70;8.95;;;4.90;99.90;;;;;;5056205;28;20123;-25
2023/04/19 03:14:08;;;;;;;14.63;8.57;;;5.00;99.90;;;;;;5039640;28;20436;-26
2023/04/19 03:16:34;;;;;;;12.43;8.10;;;5.00;99.90;;;;;;5057057;28;20502;-25
2023/04/19 03:18:59;;;;;;;15.37;8.90;;;4.90;99.90;;;;;;5073865;28;20520;-26
2023/04/19 03:21:27;;;;;;;12.00;8.00;;;4.90;99.90;;;;;;5057036;28;20059;-26
2023/04/19 03:23:54;;;;;;;11.45;7.95;;;4.80;99.90;;;;;;5073870;28;20052;-26
2023/04/19 03:26:20;;;;;;;10.47;7.60;;;4.80;99.90;;;;;;5073794;28;20075;-27
2023/04/19 03:28:47;;;;;;;12.80;7.60;;;4.70;99.90;;;;;;5055763;28;20133;-27
2023/04/19 03:31:13;;;;;;;14.03;8.87;;;4.70;92.00;;;;;;5055765;28;20106;-27
2023/04/19 03:33:39;;;;;;;13.53;8.40;;;4.70;82.70;;;;;;5056048;28;20080;-27
2023/04/19 03:36:05;;;;;;;14.00;8.15;;;4.70;63.20;;;;;;5074487;28;20079;-27
2023/04/19 03:38:31;;;;;;;13.07;8.17;;;4.60;43.00;;;;;;5055993;28;20083;-27
2023/04/19 03:40:57;;;;;;;10.90;7.23;;;4.60;29.60;;;;;;5054828;28;20155;-27
2023/04/19 03:43:25;;;;;;;12.40;7.80;;;4.50;15.80;;;;;;5039285;28;20056;-27
2023/04/19 03:45:51;;;;;;;12.30;7.70;;;4.50;14.20;;;;;;5073610;28;20127;-27
2023/04/19 03:48:17;;;;;;;13.67;8.37;;;4.50;30.60;;;;;;5073160;28;20132;-27
2023/04/19 03:50:42;;;;;;;12.63;8.10;;;4.40;41.20;;;;;;5055872;28;20051;-27
2023/04/19 03:53:08;;;;;;;13.37;7.67;;;4.40;46.30;;;;;;5073520;28;20049;-26
2023/04/19 03:55:34;;;;;;;13.00;7.63;;;4.30;91.30;;;;;;5073498;28;20045;-27
2023/04/19 03:57:59;;;;;;;12.87;8.93;;;4.20;53.50;;;;;;5073514;28;20542;-27
2023/04/19 04:00:26;;;;;;;13.70;8.97;;;4.20;99.90;;;;;;5055732;28;20044;-27
2023/04/19 04:02:52;;;;;;;11.70;8.73;;;4.20;68.80;;;;;;5055724;28;20052;-27
2023/04/19 04:05:17;;;;;;;13.03;8.27;;;4.20;88.30;;;;;;5073387;28;20094;-27
2023/04/19 04:07:43;;;;;;;14.60;8.63;;;4.20;58.60;;;;;;5038882;28;20055;-27
2023/04/19 04:10:09;;;;;;;14.50;8.50;;;4.10;99.90;;;;;;5055473;28;20131;-26
2023/04/19 04:12:35;;;;;;;14.43;9.03;;;4.00;99.90;;;;;;5073390;28;20045;-26
2023/04/19 04:15:02;;;;;;;12.83;8.07;;;4.20;92.00;;;;;;5073302;28;20049;-25
2023/04/19 04:17:27;;;;;;;12.20;8.23;;;4.00;99.90;;;;;;5073837;28;20040;-26
2023/04/19 04:19:53;;;;;;;12.27;7.07;;;4.00;43.20;;;;;;5055015;28;20106;-26
2023/04/19 04:22:20;;;;;;;12.47;8.07;;;4.10;39.90;;;;;;5073242;28;20056;-26
2023/04/19 04:24:46;;;;;;;11.50;7.73;;;4.00;9.30;;;;;;5073530;28;20049;-26
2023/04/19 04:27:11;;;;;;;15.40;7.57;;;4.20;1.00;;;;;;5073172;28;20051;-25
2023/04/19 04:29:38;;;;;;;11.13;7.50;;;4.40;1.00;;;;;;5073065;28;20044;-26
2023/04/19 04:32:09;;;;;;;12.63;7.00;;;4.40;1.00;;;;;;5039681;28;20049;-26
2023/04/19 04:34:36;;;;;;;11.67;6.93;;;4.00;1.00;;;;;;5073711;28;20127;-26
2023/04/19 04:37:02;;;;;;;9.77;6.87;;;4.00;1.00;;;;;;5073123;28;20405;-26
2023/04/19 04:39:28;;;;;;;11.23;7.97;;;4.10;1.00;;;;;;5072842;28;20130;-25
2023/04/19 04:41:56;;;;;;;9.77;6.70;;;4.00;1.00;;;;;;5038715;28;20059;-26
2023/04/19 04:44:22;;;;;;;9.80;7.27;;;4.20;1.00;;;;;;5072998;28;20040;-26
2023/04/19 04:46:48;;;;;;;11.50;6.87;;;3.90;1.00;;;;;;5072692;28;20095;-26
2023/04/19 04:49:14;;;;;;;12.43;6.90;;;3.90;1.00;;;;;;5072722;28;20076;-26
2023/04/19 04:51:40;;;;;;;12.43;6.33;;;3.90;1.00;;;;;;5056366;28;20572;-26
2023/04/19 04:54:05;;;;;;;11.53;6.33;;;3.80;1.00;;;;;;5076377;28;20106;-26
2023/04/19 04:56:31;;;;;;;13.10;6.67;;;3.80;1.00;;;;;;5076494;28;20540;-26
2023/04/19 04:58:58;;;;;;;10.90;6.37;;;4.00;1.00;;;;;;5076281;28;20066;-25
2023/04/19 05:01:23;;;;;;;11.20;6.53;;;3.90;1.00;;;;;;5058266;28;20056;-26
2023/04/19 05:03:51;;;;;;;10.77;6.00;;;4.10;1.00;;;;;;5076182;28;20045;-25
2023/04/19 05:06:17;;;;;;;12.50;6.83;;;4.00;1.00;;;;;;5076108;28;20532;-26
2023/04/19 05:08:43;;;;;;;12.70;6.57;;;4.30;99.90;;;;;;5076055;28;20036;-25
2023/04/19 05:11:09;;;;;;;8.70;5.87;;;4.10;99.90;;;;;;5076087;28;20048;-26
2023/04/19 05:13:35;;;;;;;10.43;6.17;;;3.90;99.90;;;;;;5042753;28;20051;-27
2023/04/19 05:16:01;;;;;;;9.53;5.73;;;4.00;99.90;;;;;;5058259;28;20049;-25
2023/04/19 05:18:26;;;;;;;12.43;6.27;;;4.00;99.90;;;;;;5076133;28;20071;-26
2023/04/19 05:20:52;;;;;;;10.13;5.70;;;4.00;99.90;;;;;;5076625;28;20098;-26
2023/04/19 05:23:18;;;;;;;9.07;5.10;;;4.50;99.90;;;;;;5076347;28;20094;-25
2023/04/19 05:25:43;;;;;;;11.47;5.77;;;4.30;99.90;;;;;;5042570;28;20517;-25
2023/04/19 05:28:09;;;;;;;7.40;5.40;;;4.50;99.90;;;;;;5075858;28;20049;-25
2023/04/19 05:30:35;;;;;;;7.93;5.03;;;4.50;99.90;;;;;;5041643;28;20169;-26
2023/04/19 05:33:01;;;;;;;8.47;5.43;;;4.50;99.90;;;;;;5041626;28;20053;-26
2023/04/19 05:35:26;;;;;;;12.20;5.10;;;4.60;99.90;;;;;;5075793;28;20152;-25
2023/04/19 05:37:52;;;;;;;8.97;4.70;;;4.60;99.90;;;;;;5075820;28;20045;-26
2023/04/19 05:40:18;;;;;;;8.30;5.43;;;4.70;99.90;;;;;;5075497;28;20095;-26
2023/04/19 05:42:44;;;;;;;7.63;4.83;;;4.70;99.90;;;;;;5057668;28;20117;-26
2023/04/19 05:45:10;;;;;;;6.77;4.53;;;4.80;90.30;;;;;;5075580;28;20052;-26
2023/04/19 05:47:36;;;;;;;9.33;5.20;;;4.90;99.90;;;;;;5075526;28;20077;-26
2023/04/19 05:50:03;;;;;;;8.60;5.60;;;4.80;79.00;;;;;;5057640;28;20048;-26
2023/04/19 05:52:28;;;;;;;10.30;4.57;;;5.00;93.70;;;;;;5076058;28;20048;-25
2023/04/19 05:54:54;;;;;;;7.80;4.53;;;5.10;27.30;;;;;;5076200;28;20131;-26
2023/04/19 05:57:20;;;;;;;7.65;4.88;;;5.30;21.20;;;;;;5075377;28;20050;-26
2023/04/19 05:59:46;;;;;;;9.13;4.60;;;5.20;1.00;;;;;;5058425;28;20075;-26
2023/04/19 06:02:11;;;;;;;7.93;4.87;;;5.40;1.00;;;;;;5075293;28;20106;-26
2023/04/19 06:04:37;;;;;;;6.55;4.78;;;5.40;1.00;;;;;;5074383;28;20573;-26
2023/04/19 06:07:03;;;;;;;11.63;5.05;;;5.50;1.00;;;;;;5075749;28;20040;-26
2023/04/19 06:09:29;;;;;;;8.70;4.65;;;5.40;1.00;;;;;;5075158;28;20140;-26
2023/04/19 06:11:55;;;;;;;9.27;4.72;;;5.60;99.90;;;;;;5074855;28;20238;-26
2023/04/19 06:14:21;;;;;;;6.47;4.07;;;5.70;1.00;;;;;;5075101;28;20044;-26
2023/04/19 06:16:47;;;;;;;7.35;4.22;;;5.70;1.00;;;;;;5075469;28;20392;-26
2023/04/19 06:19:13;;;;;;;8.20;3.78;;;5.90;99.90;;;;;;5075437;28;20086;-27
2023/04/19 06:21:39;;;;;;;7.72;3.83;;;6.00;1.00;;;;;;5075452;28;20139;-26
2023/04/19 06:24:07;;;;;;;6.95;3.85;;;6.10;99.90;;;;;;5057116;28;20040;-26
2023/04/19 06:26:33;;;;;;;5.85;3.78;;;6.20;99.90;;;;;;5075121;28;20087;-26
2023/04/19 06:28:59;;;;;;;6.93;3.63;;;6.50;99.90;;;;;;5074516;28;20083;-26
2023/04/19 06:31:24;;;;;;;5.32;3.58;;;6.40;99.90;;;;;;5057052;28;20147;-26
2023/04/19 06:33:50;;;;;;;6.60;3.70;;;6.50;38.90;;;;;;5057344;28;20059;-26
2023/04/19 06:36:17;;;;;;;6.30;3.22;;;6.60;1.00;;;;;;5056301;28;20071;-26
2023/04/19 06:38:45;;;;;;;5.13;3.08;;;6.70;1.00;;;;;;5074538;28;20080;-26
2023/04/19 06:41:11;;;;;;;7.50;3.45;;;6.80;1.00;;;;;;5053610;28;20056;-26
2023/04/19 06:43:38;;;;;;;7.38;3.35;;;6.90;99.90;;;;;;5054470;28;20052;-27
2023/04/19 06:46:04;;;;;;;5.70;3.28;;;6.90;99.90;;;;;;5054414;28;20056;-27
2023/04/19 06:48:30;;;;;;;7.32;3.53;;;7.00;99.90;;;;;;5054312;28;20045;-26
2023/04/19 06:50:55;;;;;;;5.60;3.45;;;7.00;99.90;;;;;;5054294;28;20095;-26
2023/04/19 06:53:22;;;;;;;5.55;3.70;;;7.10;99.90;;;;;;5020552;28;20056;-26
2023/04/19 06:55:48;;;;;;;7.85;3.40;;;7.20;99.90;;;;;;5054326;28;20053;-26
2023/04/19 06:58:14;;;;;;;4.95;3.22;;;7.30;99.90;;;;;;5053095;28;20048;-27
2023/04/19 07:00:39;;;;;;;4.82;3.15;;;7.50;99.90;;;;;;5054272;28;20403;-27
2023/04/19 07:03:05;;;;;;;6.78;2.75;;;7.50;1.00;;;;;;5054179;28;20405;-26
2023/04/19 07:05:31;;;;;;;7.35;2.90;;;7.60;1.00;;;;;;5053984;28;20052;-27
2023/04/19 07:07:57;;;;;;;6.47;2.65;;;7.70;1.00;;;;;;5052899;28;20116;-27
2023/04/19 07:10:23;;;;;;;7.30;3.00;;;7.80;1.00;;;;;;5052909;28;20049;-27
2023/04/19 07:12:50;;;;;;;4.40;2.90;;;7.90;1.00;;;;;;5054027;28;20045;-27
2023/04/19 07:15:16;;;;;;;5.35;3.40;;;8.00;99.90;;;;;;5052668;28;20045;-27
2023/04/19 07:17:41;;;;;;;6.35;2.95;;;8.10;99.90;;;;;;5053583;28;20132;-27
2023/04/19 07:20:08;;;;;;;6.55;2.42;;;8.30;99.90;;;;;;5053957;28;20106;-27
2023/04/19 07:22:33;;;;;;;5.80;3.05;;;8.40;99.90;;;;;;5036283;28;20049;-27
2023/04/19 07:24:59;;;;;;;6.45;2.55;;;8.40;99.90;;;;;;5019827;28;20063;-26
2023/04/19 07:27:25;;;;;;;5.45;2.45;;;8.50;99.90;;;;;;5052780;28;20048;-27
2023/04/19 07:29:52;;;;;;;7.60;1.83;;;8.50;99.90;;;;;;5052688;28;20123;-27
2023/04/19 07:32:18;;;;;;;3.72;1.80;;;8.60;1.00;;;;;;5053410;28;20513;-27
2023/04/19 07:34:44;;;;;;;4.40;2.17;;;8.60;1.00;;;;;;5053677;28;20041;-27
2023/04/19 07:37:11;;;;;;;3.90;2.15;;;8.70;99.90;;;;;;5053618;28;20090;-27
2023/04/19 07:39:38;;;;;;;3.30;1.70;;;8.70;99.90;;;;;;5051928;28;20052;-26
2023/04/19 07:42:04;;;;;;;6.78;2.42;;;8.80;99.90;;;;;;5053650;28;20159;-27
2023/04/19 07:44:30;;;;;;;5.78;2.10;;;8.90;99.90;;;;;;5053537;28;20124;-27
2023/04/19 07:46:56;;;;;;;5.50;2.30;;;9.00;99.90;;;;;;5053755;28;20087;-27
2023/04/19 07:49:21;;;;;;;5.75;2.35;;;9.20;99.90;;;;;;5035803;28;20166;-27
2023/04/19 07:51:48;;;;;;;2.55;1.70;;;9.20;99.90;;;;;;5020381;28;20120;-27
2023/04/19 07:54:15;;;;;;;4.82;2.17;;;9.40;1.00;;;;;;5003077;28;20064;-27
2023/04/19 07:56:41;;;;;;;3.45;1.90;;;9.50;1.00;;;;;;5053504;28;20123;-27
2023/04/19 07:59:06;;;;;;;3.42;1.98;;;9.50;1.00;;;;;;5052312;28;20045;-28
2023/04/19 08:01:32;;;;;;;3.40;1.73;;;9.50;1.00;;;;;;5052263;28;20128;-27
2023/04/19 08:03:58;;;;;;;3.72;2.20;;;9.70;32.80;;;;;;5053379;28;20052;-27
2023/04/19 08:06:25;;;;;;;4.18;1.92;;;9.80;1.00;;;;;;5053324;28;20053;-28
2023/04/19 08:08:51;;;;;;;3.13;1.65;;;9.90;1.00;;;;;;5052843;28;20119;-27
2023/04/19 08:11:17;;;;;;;3.50;1.42;;;10.00;99.90;;;;;;5052898;28;20487;-27
2023/04/19 08:13:43;;;;;;;7.10;2.70;;;10.10;99.90;;;;;;5053196;28;20056;-28
2023/04/19 08:16:09;;;;;;;2.90;1.58;;;10.20;99.90;;;;;;5053189;28;20136;-29
2023/04/19 08:18:34;;;;;;;4.68;1.23;;;10.30;99.90;;;;;;5053086;28;20072;-28
2023/04/19 08:21:00;;;;;;;4.70;1.60;;;10.30;99.90;;;;;;5053754;28;20544;-27
2023/04/19 08:23:26;;;;;;;2.47;1.30;;;10.40;99.90;;;;;;5053063;28;20055;-28
2023/04/19 08:25:52;;;;;;;2.58;1.42;;;10.40;52.50;;;;;;5052035;28;20521;-28
2023/04/19 08:28:18;;;;;;;3.45;1.63;;;10.50;1.00;;;;;;5039760;28;20352;-26
2023/04/19 08:30:44;;;;;;;2.13;1.10;;;10.50;1.00;;;;;;5056957;28;20498;-27
2023/04/19 08:33:09;;;;;;;2.45;1.35;;;10.60;1.00;;;;;;5056962;28;20037;-28
2023/04/19 08:35:37;;;;;;;2.45;1.20;;;10.60;1.00;;;;;;5055733;28;20052;-28
2023/04/19 08:38:03;;;;;;;2.95;1.17;;;10.60;1.00;;;;;;5055672;28;20045;-30
2023/04/19 08:40:30;;;;;;;3.45;1.25;;;10.60;1.00;;;;;;5055368;28;20053;-28
2023/04/19 08:42:56;;;;;;;7.32;1.70;;;10.70;99.90;;;;;;5055836;28;20541;-28
2023/04/19 08:45:26;;;;;;;2.67;1.10;;;10.70;1.00;;;;;;5057284;28;20045;-27
2023/04/19 08:47:53;;;;;;;2.72;1.33;;;10.90;1.00;;;;;;5039250;28;20033;-28
2023/04/19 08:50:20;;;;;;;3.47;1.38;;;11.00;1.00;;;;;;5056704;28;20056;-27
2023/04/19 08:52:46;;;;;;;2.17;1.50;;;11.20;99.90;;;;;;5055734;28;20056;-28
2023/04/19 08:55:14;;;;;;;2.30;1.00;;;11.30;99.90;;;;;;5056694;28;20055;-29
2023/04/19 08:57:40;;;;;;;1.98;1.00;;;11.30;99.90;;;;;;5055147;28;20045;-28
2023/04/19 09:00:07;;;;;;;4.07;1.75;;;11.30;99.90;;;;;;5055592;28;20067;-27
2023/04/19 09:02:48;;;;;;;2.08;1.02;;;11.90;99.90;;;;;;5055776;28;20040;-27
2023/04/19 09:05:14;;;;;;;4.60;1.40;;;12.10;99.90;;;;;;5054963;28;20510;-28
2023/04/19 09:07:41;;;;;;;1.30;0.95;;;12.90;99.90;;;;;;5056261;28;20072;-28
2023/04/19 09:10:09;;;;;;;2.50;1.50;;;13.60;99.90;;;;;;5055197;28;20063;-27
2023/04/19 09:12:35;;;;;;;2.67;1.17;;;13.80;99.90;;;;;;5056271;28;20105;-27
2023/04/19 09:15:03;;;;;;;2.53;1.13;;;14.40;99.90;;;;;;5056281;28;20045;-27
2023/04/19 09:17:30;;;;;;;5.15;1.05;;;14.90;99.90;;;;;;5056194;28;20509;-27
2023/04/19 09:19:56;;;;;;;3.72;1.48;;;15.30;99.90;;;;;;5054975;28;20052;-27
2023/04/19 09:22:22;;;;;;;2.72;1.40;;;15.80;99.90;;;;;;5054377;28;20134;-25
2023/04/19 09:24:49;;;;;;;3.67;1.20;;;16.30;99.90;;;;;;5055276;28;20087;-25
2023/04/19 09:27:28;;;;;;;1.80;0.95;;;16.20;13.00;;;;;;5054851;28;20483;-25
2023/04/19 09:29:55;;;;;;;1.92;1.17;;;16.00;1.00;;;;;;5055954;28;20037;-25
2023/04/19 09:32:21;;;;;;;1.98;1.13;;;15.90;1.00;;;;;;5056147;28;20060;-25
2023/04/19 09:34:52;;;;;;;4.15;1.23;;;16.20;1.00;;;;;;5056931;28;20041;-25
2023/04/19 09:37:18;;;;;;;1.75;1.05;;;16.30;1.00;;;;;;5038246;28;20049;-25
2023/04/19 09:39:44;;;;;;;2.05;1.00;;;16.50;1.00;;;;;;5058850;28;20048;-25
2023/04/19 09:42:09;;;;;;;2.67;0.98;;;15.80;1.00;;;;;;5075748;28;20398;-25
2023/04/19 09:44:35;;;;;;;1.70;0.80;;;15.60;1.00;;;;;;5075754;28;20041;-25
2023/04/19 09:47:01;;;;;;;2.97;1.02;;;15.80;1.00;;;;;;5074548;28;20094;-25
2023/04/19 09:49:27;;;;;;;2.35;0.93;;;15.80;1.00;;;;;;5075883;28;20045;-25
2023/04/19 09:51:55;;;;;;;3.20;0.82;;;15.40;1.00;;;;;;5075471;28;20041;-25
2023/04/19 09:54:26;;;;;;;3.15;1.00;;;15.60;1.00;;;;;;5075497;28;20047;-25
2023/04/19 09:56:51;;;;;;;4.32;1.10;;;15.90;1.00;;;;;;5074538;28;20032;-25
2023/04/19 09:59:17;;;;;;;3.08;1.27;;;15.70;1.00;;;;;;5053309;28;20123;-25
2023/04/19 10:01:57;;;;;;;1.65;0.88;;;15.80;1.00;;;;;;5069921;28;20052;-25
2023/04/19 10:04:24;;;;;;;3.97;1.95;;;16.10;1.00;;;;;;5074944;28;20124;-25
2023/04/19 10:06:51;;;;;;;3.30;1.40;;;15.80;1.00;;;;;;5073865;28;20052;-25
2023/04/19 10:09:21;;;;;;;6.82;1.00;;;15.90;1.00;;;;;;5074220;28;20052;-25
2023/04/19 10:11:49;;;;;;;2.45;0.80;;;16.10;1.00;;;;;;5075817;28;20396;-25
2023/04/19 10:14:15;;;;;;;4.20;1.00;;;16.40;1.00;;;;;;5061716;28;20076;-27
2023/04/19 10:16:41;;;;;;;1.60;0.73;;;16.50;1.00;;;;;;5074317;28;20084;-25
2023/04/19 10:19:09;;;;;;;1.15;0.43;;;16.90;1.00;;;;;;5075039;28;20083;-26
2023/04/19 10:21:37;;;;;;;2.55;0.77;;;16.70;1.00;;;;;;5074766;28;20044;-25
2023/04/19 10:24:04;;;;;;;2.88;0.60;;;16.80;1.00;;;;;;5074882;28;20544;-25
2023/04/19 10:26:50;;;;;;;2.78;0.80;;;16.90;1.00;;;;;;5061887;28;20051;-25
2023/04/19 10:29:54;;;;;;;3.80;0.73;;;16.70;1.00;;;;;;5071754;28;20391;-25
2023/04/19 10:32:19;;;;;;;4.32;1.20;;;16.20;1.00;;;;;;5074659;28;20486;-26
2023/04/19 10:34:46;;;;;;;0.90;0.75;;;16.10;1.00;;;;;;5056810;28;20055;-26
2023/04/19 10:37:14;;;;;;;1.55;0.90;;;16.30;1.00;;;;;;5074989;28;20543;-26
2023/04/19 10:39:43;;;;;;;3.10;0.60;;;16.30;1.00;;;;;;5074511;28;20056;-25
2023/04/19 10:42:09;;;;;;;2.50;0.60;;;16.20;1.00;;;;;;5056599;28;20041;-27
2023/04/19 10:44:35;;;;;;;2.45;0.52;;;16.60;1.00;;;;;;5056721;28;20098;-26
2023/04/19 10:47:01;;;;;;;2.10;1.10;;;16.70;1.00;;;;;;5074365;28;20437;-26
2023/04/19 10:49:30;;;;;;;3.13;0.57;;;16.80;1.00;;;;;;5074011;28;20048;-27
2023/04/19 10:51:58;;;;;;;1.35;0.50;;;16.80;1.00;;;;;;5074338;28;20064;-27
2023/04/19 10:54:31;;;;;;;1.60;0.75;;;16.80;1.00;;;;;;5074366;28;20490;-27
2023/04/19 10:56:59;;;;;;;0.90;0.60;;;16.80;1.00;;;;;;5074287;28;20135;-27
2023/04/19 10:59:26;;;;;;;2.97;0.88;;;17.10;1.00;;;;;;5056512;28;20360;-27
2023/04/19 11:01:52;;;;;;;2.35;0.90;;;17.10;1.00;;;;;;5074723;28;20084;-26
2023/04/19 11:04:26;;;;;;;2.50;1.02;;;16.80;1.00;;;;;;5074166;28;20052;-27
2023/04/19 11:06:51;;;;;;;2.25;0.82;;;16.90;1.00;;;;;;5073755;28;20482;-27
2023/04/19 11:09:28;;;;;;;2.38;1.25;;;17.00;1.00;;;;;;5056022;28;20045;-27
2023/04/19 11:11:58;;;;;;;1.88;0.77;;;17.00;1.00;;;;;;5072861;28;20449;-27
2023/04/19 11:14:25;;;;;;;1.80;0.73;;;17.00;1.00;;;;;;5073499;28;20074;-27
2023/04/19 11:16:53;;;;;;;2.53;0.90;;;16.50;1.00;;;;;;5074745;28;20044;-27
2023/04/19 11:19:19;;;;;;;3.85;1.00;;;16.10;1.00;;;;;;5074406;28;20044;-26
2023/04/19 11:21:46;;;;;;;3.00;1.23;;;15.80;1.00;;;;;;5070854;28;20078;-27
2023/04/19 11:24:12;;;;;;;3.83;1.17;;;15.40;1.00;;;;;;5056218;28;20079;-26
2023/04/19 11:26:38;;;;;;;3.28;1.30;;;15.40;1.00;;;;;;5073908;28;20057;-26
2023/04/19 11:29:05;;;;;;;1.05;0.70;;;15.20;1.00;;;;;;5073628;28;20047;-25
2023/04/19 11:31:33;;;;;;;1.77;0.85;;;15.10;1.00;;;;;;5073367;28;20456;-25
2023/04/19 11:33:59;;;;;;;3.17;1.00;;;15.10;1.00;;;;;;5054086;28;20087;-25
2023/04/19 11:36:25;;;;;;;3.30;1.13;;;14.80;1.00;;;;;;5073701;28;20482;-25
2023/04/19 11:38:54;;;;;;;3.47;1.63;;;14.20;1.00;;;;;;5074211;28;20047;-25
2023/04/19 11:41:20;;;;;;;1.98;1.20;;;14.00;1.00;;;;;;5074160;28;20517;-25
2023/04/19 11:43:47;;;;;;;4.10;1.38;;;14.30;1.00;;;;;;5071433;28;20182;-25
2023/04/19 11:46:13;;;;;;;3.97;1.67;;;14.50;1.00;;;;;;5055896;28;20098;-25
2023/04/19 11:48:52;;;;;;;2.10;1.00;;;14.60;1.00;;;;;;5072693;28;20128;-25
2023/04/19 11:51:18;;;;;;;4.53;2.15;;;14.90;1.00;;;;;;5073859;28;20487;-25
2023/04/19 11:53:43;;;;;;;3.40;1.33;;;14.80;1.00;;;;;;5070969;28;20076;-24
2023/04/19 11:56:09;;;;;;;3.88;1.60;;;14.90;1.00;;;;;;5071122;28;20501;-25
2023/04/19 11:58:43;;;;;;;5.03;1.65;;;14.90;1.00;;;;;;5055471;28;20127;-25
2023/04/19 12:01:11;;;;;;;5.47;1.80;;;14.80;1.00;;;;;;5055840;28;20128;-24
2023/04/19 12:03:46;;;;;;;3.45;2.05;;;15.30;1.00;;;;;;5058010;28;20383;-25
2023/04/19 12:06:14;;;;;;;4.20;1.80;;;15.70;1.00;;;;;;5063575;28;20048;-25
2023/04/19 12:08:48;;;;;;;4.15;1.70;;;15.60;1.00;;;;;;5076806;28;20068;-25
2023/04/19 12:11:17;;;;;;;5.25;2.75;;;15.50;1.00;;;;;;5078029;28;20106;-25
2023/04/19 12:13:43;;;;;;;4.63;2.17;;;15.60;1.00;;;;;;5059587;28;20471;-25
2023/04/19 12:16:10;;;;;;;3.40;1.80;;;15.70;1.00;;;;;;5060434;28;20044;-25
2023/04/19 12:18:44;;;;;;;3.70;2.33;;;15.60;1.00;;;;;;5077261;28;20049;-25
2023/04/19 12:21:12;;;;;;;7.00;2.08;;;15.60;1.00;;;;;;5043129;28;20139;-25
2023/04/19 12:23:37;;;;;;;10.60;3.03;;;15.30;1.00;;;;;;5077131;28;20127;-25
2023/04/19 12:26:07;;;;;;;3.95;1.58;;;15.40;1.00;;;;;;5059178;28;20136;-25
2023/04/19 12:28:32;;;;;;;7.80;2.70;;;15.40;1.00;;;;;;5076886;28;20044;-25
2023/04/19 12:30:58;;;;;;;5.03;2.60;;;15.40;1.00;;;;;;5077242;28;20059;-25
2023/04/19 12:33:24;;;;;;;4.75;2.30;;;15.30;1.00;;;;;;5076946;28;20044;-25
2023/04/19 12:35:50;;;;;;;3.58;2.42;;;15.20;1.00;;;;;;5076902;28;20044;-25
2023/04/19 12:38:15;;;;;;;3.97;2.45;;;15.10;1.00;;;;;;5077142;28;20128;-24
2023/04/19 12:40:42;;;;;;;3.97;1.83;;;15.00;1.00;;;;;;5059088;28;20513;-25
2023/04/19 12:43:07;;;;;;;6.45;2.53;;;15.10;1.00;;;;;;5076822;28;20124;-25
2023/04/19 12:45:33;;;;;;;5.15;2.55;;;15.10;1.00;;;;;;5059049;28;20467;-25
2023/04/19 12:47:59;;;;;;;7.82;2.20;;;15.10;1.00;;;;;;5076577;28;20048;-25
2023/04/19 12:50:25;;;;;;;6.20;2.38;;;15.10;1.00;;;;;;5076617;28;20041;-25